createdAt,value
2022-11-09T00:01:31.156Z,625.63
2022-11-09T00:03:59.860Z,588.55
2022-11-09T00:06:27.779Z,445.42
2022-11-09T00:08:56.356Z,618.25
2022-11-09T00:11:24.393Z,529.85
2022-11-09T00:13:51.963Z,588.88
2022-11-09T00:16:20.563Z,436.95
2022-11-09T00:18:51.937Z,546.95
2022-11-09T00:21:24.455Z,575.95
2022-11-09T00:23:52.614Z,950.55
2022-11-09T00:26:21.188Z,810.70
2022-11-09T00:28:49.595Z,585.35
2022-11-09T00:31:19.570Z,947.45
2022-11-09T00:33:53.375Z,567.72
2022-11-09T00:36:21.487Z,800.33
2022-11-09T00:38:54.210Z,998.40
2022-11-09T00:41:21.949Z,458.05
2022-11-09T00:43:50.267Z,416.92
2022-11-09T00:46:19.350Z,539.20
2022-11-09T00:48:47.856Z,647.83
2022-11-09T00:51:15.852Z,464.55
2022-11-09T00:53:43.727Z,580.92
2022-11-09T00:56:12.308Z,509.90
2022-11-09T00:58:41.147Z,555.45
2022-11-09T01:01:14.558Z,417.30
2022-11-09T01:03:44.307Z,640.50
2022-11-09T01:06:20.376Z,482.70
2022-11-09T01:08:48.335Z,618.10
2022-11-09T01:11:16.941Z,489.58
2022-11-09T01:13:44.644Z,544.50
2022-11-09T01:16:14.755Z,443.20
2022-11-09T01:18:42.385Z,358.08
2022-11-09T01:21:11.521Z,505.92
2022-11-09T01:23:39.651Z,486.38
2022-11-09T01:26:08.450Z,499.23
2022-11-09T01:28:36.147Z,696.72
2022-11-09T01:31:07.328Z,364.73
2022-11-09T01:33:35.778Z,404.42
2022-11-09T01:36:08.864Z,519.60
2022-11-09T01:38:37.906Z,654.00
2022-11-09T01:41:06.335Z,534.28
2022-11-09T01:43:35.452Z,584.25
2022-11-09T01:46:09.777Z,736.42
2022-11-09T01:48:41.233Z,754.22
2022-11-09T01:51:19.770Z,733.15
2022-11-09T01:53:49.264Z,692.03
2022-11-09T01:56:17.377Z,950.17
2022-11-09T01:58:50.975Z,643.78
2022-11-09T02:01:18.755Z,653.85
2022-11-09T02:04:11.636Z,605.17
2022-11-09T02:06:41.036Z,807.17
2022-11-09T02:09:49.183Z,1061.47
2022-11-09T02:12:18.334Z,713.75
2022-11-09T02:14:48.479Z,664.05
2022-11-09T02:17:17.110Z,657.38
2022-11-09T02:19:45.731Z,699.33
2022-11-09T02:22:14.195Z,681.40
2022-11-09T02:24:41.858Z,1062.30
2022-11-09T02:27:09.643Z,732.30
2022-11-09T02:29:42.459Z,733.13
2022-11-09T02:32:12.779Z,804.75
2022-11-09T02:34:41.100Z,737.28
2022-11-09T02:37:09.098Z,643.13
2022-11-09T02:39:37.576Z,636.58
2022-11-09T02:42:11.402Z,712.28
2022-11-09T02:44:48.359Z,790.75
2022-11-09T02:47:16.216Z,757.55
2022-11-09T02:49:46.616Z,741.08
2022-11-09T02:52:14.197Z,674.72
2022-11-09T02:54:42.265Z,680.50
2022-11-09T02:57:09.953Z,500.92
2022-11-09T02:59:40.218Z,650.10
2022-11-09T03:02:07.917Z,692.85
2022-11-09T03:04:37.624Z,553.78
2022-11-09T03:07:06.128Z,520.35
2022-11-09T03:09:33.952Z,732.38
2022-11-09T03:12:24.908Z,506.38
2022-11-09T03:14:52.961Z,546.40
2022-11-09T03:17:21.852Z,500.10
2022-11-09T03:19:49.432Z,523.97
2022-11-09T03:22:17.968Z,536.55
2022-11-09T03:24:47.464Z,419.58
2022-11-09T03:27:16.314Z,439.95
2022-11-09T03:32:15.782Z,585.80
2022-11-09T03:34:43.473Z,362.52
2022-11-09T03:37:13.787Z,501.73
2022-11-09T03:39:42.664Z,341.13
2022-11-09T03:42:10.338Z,373.00
2022-11-09T03:44:40.623Z,380.50
2022-11-09T03:47:08.387Z,463.98
2022-11-09T03:49:38.780Z,311.85
2022-11-09T03:52:06.635Z,217.57
2022-11-09T03:54:34.154Z,304.50
2022-11-09T03:57:01.884Z,424.63
2022-11-09T03:59:29.620Z,584.60
2022-11-09T04:01:57.719Z,517.90
2022-11-09T04:04:25.347Z,325.08
2022-11-09T04:06:52.988Z,260.52
2022-11-09T04:09:20.585Z,261.95
2022-11-09T04:11:49.088Z,212.68
2022-11-09T04:14:16.643Z,218.27
2022-11-09T04:16:44.499Z,190.15
2022-11-09T04:19:12.608Z,212.43
2022-11-09T04:21:40.436Z,201.07
2022-11-09T04:24:08.013Z,180.98
2022-11-09T04:26:35.574Z,182.57
2022-11-09T04:29:03.228Z,180.32
2022-11-09T04:31:31.080Z,179.85
2022-11-09T04:33:58.572Z,184.88
2022-11-09T04:36:26.177Z,160.60
2022-11-09T04:38:53.698Z,159.35
2022-11-09T04:41:21.585Z,178.88
2022-11-09T04:43:49.221Z,147.13
2022-11-09T04:46:17.339Z,132.80
2022-11-09T04:48:44.847Z,147.48
2022-11-09T04:51:13.096Z,140.32
2022-11-09T04:53:42.359Z,141.23
2022-11-09T04:56:10.031Z,132.10
2022-11-09T04:58:38.014Z,130.35
2022-11-09T05:01:11.945Z,137.45
2022-11-09T05:03:40.389Z,116.32
2022-11-09T05:06:26.917Z,123.72
2022-11-09T05:08:55.259Z,113.78
2022-11-09T05:11:23.354Z,114.93
2022-11-09T05:13:54.134Z,115.57
2022-11-09T05:16:23.255Z,106.00
2022-11-09T05:18:51.006Z,99.03
2022-11-09T05:21:18.671Z,105.68
2022-11-09T05:24:02.638Z,96.97
2022-11-09T05:26:30.193Z,93.25
2022-11-09T05:28:59.292Z,97.63
2022-11-09T05:31:27.373Z,87.40
2022-11-09T05:33:55.180Z,97.40
2022-11-09T05:36:23.310Z,91.10
2022-11-09T05:38:52.913Z,98.43
2022-11-09T05:41:21.072Z,91.88
2022-11-09T05:43:49.222Z,88.82
2022-11-09T05:46:17.470Z,93.93
2022-11-09T05:48:45.293Z,91.60
2022-11-09T05:51:13.956Z,92.68
2022-11-09T05:53:46.101Z,89.63
2022-11-09T05:56:14.795Z,92.25
2022-11-09T05:58:42.724Z,80.13
2022-11-09T06:01:13.848Z,76.65
2022-11-09T06:03:42.594Z,61.27
2022-11-09T06:06:11.568Z,84.78
2022-11-09T06:08:39.146Z,74.70
2022-11-09T06:11:08.853Z,72.75
2022-11-09T06:13:36.731Z,70.60
2022-11-09T06:16:05.981Z,80.03
2022-11-09T06:18:34.169Z,71.20
2022-11-09T06:21:05.425Z,69.88
2022-11-09T06:23:34.472Z,71.05
2022-11-09T06:26:11.807Z,67.43
2022-11-09T06:28:39.995Z,62.75
2022-11-09T06:31:14.659Z,66.10
2022-11-09T06:33:42.299Z,62.95
2022-11-09T06:36:10.664Z,67.30
2022-11-09T06:38:38.512Z,67.82
2022-11-09T06:41:06.160Z,63.22
2022-11-09T06:43:33.763Z,65.07
2022-11-09T06:46:04.031Z,55.13
2022-11-09T06:48:31.625Z,60.58
2022-11-09T06:51:00.829Z,57.22
2022-11-09T06:53:30.044Z,60.20
2022-11-09T06:55:59.140Z,66.22
2022-11-09T06:58:26.782Z,84.10
2022-11-09T07:00:55.823Z,70.25
2022-11-09T07:03:24.046Z,58.90
2022-11-09T07:05:53.439Z,58.17
2022-11-09T07:08:21.293Z,56.53
2022-11-09T07:10:49.087Z,60.10
2022-11-09T07:13:16.882Z,60.95
2022-11-09T07:15:45.223Z,59.50
2022-11-09T07:18:13.335Z,67.43
2022-11-09T07:20:41.245Z,58.92
2022-11-09T07:23:11.625Z,42.80
2022-11-09T07:25:39.115Z,59.83
2022-11-09T07:28:08.612Z,77.07
2022-11-09T07:30:37.074Z,61.40
2022-11-09T07:33:15.472Z,60.70
2022-11-09T07:35:43.660Z,59.30
2022-11-09T07:38:15.993Z,58.80
2022-11-09T07:40:44.748Z,61.05
2022-11-09T07:43:12.905Z,62.92
2022-11-09T07:45:41.725Z,65.30
2022-11-09T07:48:10.760Z,61.38
2022-11-09T07:50:39.414Z,59.50
2022-11-09T07:53:07.616Z,55.75
2022-11-09T07:55:35.585Z,54.95
2022-11-09T07:58:08.526Z,62.03
2022-11-09T08:00:37.297Z,57.83
2022-11-09T08:03:05.184Z,64.85
2022-11-09T08:05:33.372Z,66.00
2022-11-09T08:08:04.309Z,61.65
2022-11-09T08:10:32.307Z,59.27
2022-11-09T08:13:08.604Z,61.42
2022-11-09T08:15:36.592Z,60.65
2022-11-09T08:18:06.519Z,70.30
2022-11-09T08:20:34.589Z,65.97
2022-11-09T08:23:04.907Z,67.40
2022-11-09T08:25:35.444Z,69.10
2022-11-09T08:28:03.722Z,68.22
2022-11-09T08:30:31.601Z,72.40
2022-11-09T08:33:00.460Z,82.57
2022-11-09T08:35:29.232Z,76.78
2022-11-09T08:37:56.967Z,75.00
2022-11-09T08:40:25.698Z,75.20
2022-11-09T08:42:53.920Z,71.85
2022-11-09T08:45:21.513Z,74.43
2022-11-09T08:47:50.230Z,72.25
2022-11-09T08:50:18.860Z,76.05
2022-11-09T08:52:46.564Z,78.32
2022-11-09T08:55:14.375Z,66.53
2022-11-09T08:57:41.981Z,81.30
2022-11-09T09:00:10.302Z,67.78
2022-11-09T09:02:38.091Z,67.13
2022-11-09T09:05:05.903Z,66.53
2022-11-09T09:07:33.473Z,71.00
2022-11-09T09:10:01.249Z,90.18
2022-11-09T09:12:28.968Z,79.93
2022-11-09T09:14:56.642Z,76.72
2022-11-09T09:17:24.384Z,71.15
2022-11-09T09:19:51.985Z,75.10
2022-11-09T09:22:20.267Z,70.18
2022-11-09T09:24:47.864Z,67.95
2022-11-09T09:27:15.881Z,66.93
2022-11-09T09:29:43.546Z,72.93
2022-11-09T09:32:11.557Z,79.45
2022-11-09T09:34:39.266Z,84.93
2022-11-09T09:37:06.771Z,86.55
2022-11-09T09:39:34.566Z,89.43
2022-11-09T09:42:05.075Z,84.70
2022-11-09T09:44:57.483Z,83.97
2022-11-09T09:47:33.564Z,77.72
2022-11-09T09:50:06.807Z,75.70
2022-11-09T09:52:54.118Z,70.13
2022-11-09T09:55:41.101Z,66.57
2022-11-09T09:58:12.204Z,68.68
2022-11-09T10:00:39.976Z,74.18
2022-11-09T10:03:18.928Z,67.10
2022-11-09T10:06:08.861Z,69.47
2022-11-09T10:08:42.672Z,83.07
2022-11-09T10:11:50.303Z,79.68
2022-11-09T10:15:00.294Z,77.10
2022-11-09T10:17:39.976Z,71.72
2022-11-09T10:20:49.069Z,70.80
2022-11-09T10:23:25.854Z,73.95
2022-11-09T10:26:04.187Z,76.88
2022-11-09T10:29:01.212Z,74.53
2022-11-09T10:31:24.600Z,71.50
2022-11-09T10:33:58.638Z,79.85
2022-11-09T10:36:42.265Z,74.47
2022-11-09T10:39:22.025Z,87.88
2022-11-09T10:42:10.772Z,75.30
2022-11-09T10:44:57.678Z,65.88
2022-11-09T10:47:51.064Z,68.18
2022-11-09T10:50:49.760Z,68.97
2022-11-09T10:53:35.645Z,74.63
2022-11-09T10:56:22.303Z,72.72
2022-11-09T10:59:56.719Z,69.43
2022-11-09T11:02:44.269Z,63.83
2022-11-09T11:05:31.384Z,71.97
2022-11-09T11:08:31.682Z,68.35
2022-11-09T11:11:37.416Z,62.63
2022-11-09T11:14:33.629Z,63.55
2022-11-09T11:17:29.947Z,56.83
2022-11-09T11:20:34.799Z,62.50
2022-11-09T11:23:24.654Z,63.42
2022-11-09T11:26:23.368Z,60.45
2022-11-09T11:29:21.605Z,61.50
2022-11-09T11:32:10.575Z,62.22
2022-11-09T11:35:01.308Z,57.95
2022-11-09T11:38:04.439Z,58.72
2022-11-09T11:41:24.247Z,61.92
2022-11-09T11:44:23.298Z,63.45
2022-11-09T11:47:15.679Z,73.55
2022-11-09T11:50:23.264Z,61.65
2022-11-09T11:53:19.158Z,60.25
2022-11-09T11:56:27.312Z,60.97
2022-11-09T11:59:47.201Z,63.60
2022-11-09T12:03:04.444Z,61.97
2022-11-09T12:06:09.247Z,62.35
2022-11-09T12:08:58.473Z,51.78
2022-11-09T12:11:59.831Z,55.10
2022-11-09T12:14:46.674Z,55.85
2022-11-09T12:17:57.344Z,60.90
2022-11-09T12:20:53.464Z,57.42
2022-11-09T12:23:54.895Z,52.80
2022-11-09T12:27:31.671Z,48.75
2022-11-09T12:30:21.575Z,62.63
2022-11-09T12:33:19.412Z,55.05
2022-11-09T12:36:14.507Z,53.17
2022-11-09T12:39:31.849Z,49.58
2022-11-09T12:42:24.221Z,53.40
2022-11-09T12:45:32.938Z,58.38
2022-11-09T12:48:40.947Z,53.55
2022-11-09T12:51:27.072Z,56.17
2022-11-09T12:54:13.960Z,56.30
2022-11-09T12:57:06.744Z,54.38
2022-11-09T12:59:59.740Z,54.08
2022-11-09T13:02:57.233Z,56.20
2022-11-09T13:05:45.080Z,58.28
2022-11-09T13:08:31.729Z,51.83
2022-11-09T13:11:17.829Z,55.55
2022-11-09T13:14:35.213Z,56.10
2022-11-09T13:17:21.808Z,51.85
2022-11-09T13:20:54.121Z,54.42
2022-11-09T13:26:48.385Z,53.17
2022-11-09T13:29:40.064Z,56.70
2022-11-09T13:32:33.768Z,61.13
2022-11-09T13:35:41.861Z,57.67
2022-11-09T13:38:31.120Z,58.00
2022-11-09T13:41:32.150Z,58.60
2022-11-09T13:44:20.832Z,61.17
2022-11-09T13:47:23.266Z,65.43
2022-11-09T13:50:16.892Z,58.13
2022-11-09T13:53:03.799Z,65.32
2022-11-09T13:55:49.492Z,57.35
2022-11-09T13:58:38.120Z,55.67
2022-11-09T14:01:37.023Z,58.28
2022-11-09T14:04:51.851Z,56.45
2022-11-09T14:07:38.060Z,58.50
2022-11-09T14:10:26.753Z,60.60
2022-11-09T14:13:38.145Z,60.85
2022-11-09T14:16:30.952Z,62.70
2022-11-09T14:19:32.373Z,56.03
2022-11-09T14:22:20.364Z,65.72
2022-11-09T14:25:21.390Z,66.55
2022-11-09T14:28:29.587Z,64.27
2022-11-09T14:31:26.675Z,67.55
2022-11-09T14:34:15.290Z,61.45
2022-11-09T14:37:04.837Z,65.57
2022-11-09T14:39:54.239Z,69.20
2022-11-09T14:42:46.032Z,69.82
2022-11-09T14:45:32.595Z,58.13
2022-11-09T14:48:19.990Z,63.65
2022-11-09T14:51:07.440Z,62.45
2022-11-09T14:53:53.695Z,52.45
2022-11-09T14:57:00.141Z,64.38
2022-11-09T14:59:46.481Z,62.65
2022-11-09T15:02:32.988Z,71.22
2022-11-09T15:05:48.344Z,65.93
2022-11-09T15:08:35.018Z,56.95
2022-11-09T15:11:21.977Z,61.55
2022-11-09T15:14:17.351Z,66.15
2022-11-09T15:17:17.328Z,62.58
2022-11-09T15:20:09.751Z,73.53
2022-11-09T15:23:06.737Z,79.25
2022-11-09T15:25:55.095Z,59.17
2022-11-09T15:28:45.777Z,91.07
2022-11-09T15:32:16.733Z,83.80
2022-11-09T15:35:02.787Z,89.25
2022-11-09T15:37:51.194Z,64.10
2022-11-09T15:40:39.078Z,65.88
2022-11-09T15:43:25.573Z,67.38
2022-11-09T15:46:24.291Z,98.35
2022-11-09T15:49:31.126Z,71.28
2022-11-09T15:52:17.973Z,71.20
2022-11-09T15:55:04.702Z,91.65
2022-11-09T15:57:50.811Z,109.15
2022-11-09T16:00:37.775Z,137.18
2022-11-09T16:03:24.173Z,139.63
2022-11-09T16:06:11.207Z,84.78
2022-11-09T16:08:57.035Z,87.20
2022-11-09T16:11:43.353Z,106.40
2022-11-09T16:14:31.881Z,190.52
2022-11-09T16:17:22.151Z,140.70
2022-11-09T16:20:08.843Z,117.43
2022-11-09T16:22:55.565Z,147.23
2022-11-09T16:25:43.496Z,138.23
2022-11-09T16:28:30.236Z,108.43
2022-11-09T16:31:19.110Z,131.73
2022-11-09T16:34:08.544Z,158.60
2022-11-09T16:36:56.993Z,154.32
2022-11-09T16:39:43.583Z,162.00
2022-11-09T16:42:30.037Z,182.27
2022-11-09T16:45:16.296Z,157.20
2022-11-09T16:48:03.391Z,173.20
2022-11-09T16:50:49.772Z,190.93
2022-11-09T16:53:36.222Z,222.30
2022-11-09T16:56:22.226Z,229.85
2022-11-09T16:59:08.685Z,238.35
2022-11-09T17:01:56.213Z,261.95
2022-11-09T17:04:42.573Z,232.43
2022-11-09T17:07:29.301Z,227.95
2022-11-09T17:10:15.825Z,239.88
2022-11-09T17:13:01.962Z,252.20
2022-11-09T17:15:49.539Z,302.15
2022-11-09T17:18:37.842Z,293.48
2022-11-09T17:21:25.658Z,285.55
2022-11-09T17:24:11.971Z,210.55
2022-11-09T17:27:00.250Z,588.47
2022-11-09T17:29:47.780Z,365.75
2022-11-09T17:32:35.477Z,468.83
2022-11-09T17:35:21.841Z,363.90
2022-11-09T17:38:08.232Z,430.48
2022-11-09T17:40:58.300Z,397.20
2022-11-09T17:43:45.907Z,335.25
2022-11-09T17:46:32.640Z,411.08
2022-11-09T17:49:18.697Z,407.90
2022-11-09T17:52:05.067Z,480.10
2022-11-09T17:54:51.193Z,416.70
2022-11-09T17:57:37.681Z,469.90
2022-11-09T18:00:24.145Z,286.88
2022-11-09T18:03:12.961Z,394.25
2022-11-09T18:05:59.152Z,354.60
2022-11-09T18:08:58.268Z,315.60
2022-11-09T18:11:52.837Z,298.02
2022-11-09T18:14:39.484Z,361.92
2022-11-09T18:17:25.486Z,345.83
2022-11-09T18:20:11.612Z,381.45
2022-11-09T18:22:58.124Z,342.92
2022-11-09T18:25:44.212Z,346.98
2022-11-09T18:28:30.653Z,319.95
2022-11-09T18:31:17.013Z,364.70
2022-11-09T18:34:03.188Z,318.38
2022-11-09T18:36:49.698Z,359.00
2022-11-09T18:39:36.746Z,366.48
2022-11-09T18:42:23.176Z,383.02
2022-11-09T18:45:10.108Z,403.02
2022-11-09T18:47:56.972Z,359.77
2022-11-09T18:50:43.317Z,425.42
2022-11-09T18:53:36.188Z,351.95
2022-11-09T18:56:24.153Z,342.95
2022-11-09T18:59:12.574Z,342.88
2022-11-09T19:01:59.059Z,338.88
2022-11-09T19:04:46.186Z,338.15
2022-11-09T19:07:33.463Z,319.15
2022-11-09T19:10:20.434Z,322.60
2022-11-09T19:13:06.556Z,342.30
2022-11-09T19:15:58.142Z,361.30
2022-11-09T19:18:45.166Z,336.83
2022-11-09T19:21:35.995Z,360.23
2022-11-09T19:24:25.034Z,356.35
2022-11-09T19:27:11.261Z,345.80
2022-11-09T19:29:58.162Z,552.28
2022-11-09T19:33:40.840Z,1328.50
2022-11-09T19:36:30.720Z,1312.63
2022-11-09T19:39:19.458Z,1133.55
2022-11-09T19:42:06.150Z,1473.65
2022-11-09T19:44:56.217Z,1574.38
2022-11-09T19:47:43.135Z,1513.15
2022-11-09T19:50:29.577Z,1405.28
2022-11-09T19:53:16.541Z,1603.00
2022-11-09T19:56:04.551Z,1387.75
2022-11-09T19:58:52.319Z,1945.35
2022-11-09T20:01:38.438Z,1865.75
2022-11-09T20:04:24.588Z,1767.82
2022-11-09T20:07:10.830Z,1142.50
2022-11-09T20:09:56.941Z,1240.90
2022-11-09T20:12:52.301Z,1961.55
2022-11-09T20:15:38.562Z,1582.38
2022-11-09T20:18:25.476Z,1223.13
2022-11-09T20:21:11.793Z,1367.22
2022-11-09T20:24:00.901Z,1756.57
2022-11-09T20:26:46.895Z,1393.28
2022-11-09T20:29:33.385Z,1672.53
2022-11-09T20:32:21.644Z,1581.80
2022-11-09T20:35:08.783Z,1039.43
2022-11-09T20:37:54.747Z,1559.47
2022-11-09T20:40:41.951Z,1335.43
2022-11-09T20:43:27.900Z,1157.03
2022-11-09T20:46:19.328Z,1538.15
2022-11-09T20:51:51.638Z,789.28
2022-11-09T20:54:38.899Z,692.38
2022-11-09T20:57:25.423Z,858.45
2022-11-09T21:00:12.724Z,855.35
2022-11-09T21:02:59.434Z,1268.88
2022-11-09T21:05:50.441Z,608.10
2022-11-09T21:08:40.782Z,944.65
2022-11-09T21:11:28.883Z,713.90
2022-11-09T21:14:16.610Z,655.80
2022-11-09T21:17:02.973Z,1018.42
2022-11-09T21:19:49.164Z,657.95
2022-11-09T21:22:53.790Z,1003.97
2022-11-09T21:26:00.566Z,1117.82
2022-11-09T21:29:06.220Z,718.38
2022-11-09T21:31:52.165Z,1084.25
2022-11-09T21:34:38.634Z,1030.88
2022-11-09T21:37:24.735Z,1041.22
2022-11-09T21:40:11.275Z,980.70
2022-11-09T21:42:57.479Z,986.22
2022-11-09T21:45:49.103Z,657.75
2022-11-09T21:48:35.180Z,808.15
2022-11-09T21:51:36.363Z,868.03
2022-11-09T21:54:22.428Z,815.90
2022-11-09T21:57:08.336Z,757.50
2022-11-09T21:59:54.434Z,1022.95
2022-11-09T22:02:41.962Z,964.72
2022-11-09T22:05:28.080Z,912.35
2022-11-09T22:08:14.769Z,1202.05
2022-11-09T22:11:12.086Z,1204.47
2022-11-09T22:14:16.548Z,955.80
2022-11-09T22:17:06.307Z,1099.43
2022-11-09T22:20:10.700Z,1067.53
2022-11-09T22:22:56.517Z,865.35
2022-11-09T22:25:47.786Z,742.13
2022-11-09T22:28:34.111Z,562.65
2022-11-09T22:31:21.067Z,545.25
2022-11-09T22:34:07.053Z,509.70
2022-11-09T22:36:54.027Z,540.35
2022-11-09T22:39:46.810Z,687.30
2022-11-09T22:42:33.606Z,566.20
2022-11-09T22:45:19.710Z,476.40
2022-11-09T22:48:05.820Z,521.95
2022-11-09T22:51:12.359Z,568.38
2022-11-09T22:54:00.720Z,513.17
2022-11-09T22:56:47.013Z,733.42
2022-11-09T22:59:33.848Z,646.83
2022-11-09T23:02:20.092Z,616.50
2022-11-09T23:05:06.914Z,482.67
2022-11-09T23:07:55.086Z,450.77
2022-11-09T23:11:22.665Z,555.65
2022-11-09T23:14:08.813Z,589.45
2022-11-09T23:16:54.792Z,568.30
2022-11-09T23:19:40.966Z,658.92
2022-11-09T23:22:27.538Z,634.92
2022-11-09T23:25:33.288Z,662.50
2022-11-09T23:28:19.558Z,538.22
2022-11-09T23:31:08.048Z,445.08
2022-11-09T23:33:55.898Z,540.50
2022-11-09T23:36:43.605Z,604.33
2022-11-09T23:39:29.818Z,702.42
2022-11-09T23:42:16.240Z,818.10
2022-11-09T23:45:03.778Z,956.97
2022-11-09T23:47:49.613Z,517.55
2022-11-09T23:50:38.184Z,528.45
2022-11-09T23:53:24.736Z,513.25
2022-11-09T23:56:11.873Z,528.58
2022-11-09T23:58:57.885Z,528.17
